sensor_id;sensor_type;location;lat;lon;timestamp;P1;durP1;ratioP1;P2;durP2;ratioP2
11835;SDS011;5977;51.972;7.640;2023-02-04T00:01:32;153.23;;;48.80;;
11835;SDS011;5977;51.972;7.640;2023-02-04T00:04:00;153.80;;;49.07;;
11835;SDS011;5977;51.972;7.640;2023-02-04T00:06:28;154.13;;;49.17;;
11835;SDS011;5977;51.972;7.640;2023-02-04T00:08:56;153.43;;;48.90;;
11835;SDS011;5977;51.972;7.640;2023-02-04T00:11:23;153.57;;;48.90;;
11835;SDS011;5977;51.972;7.640;2023-02-04T00:13:51;153.03;;;48.77;;
11835;SDS011;5977;51.972;7.640;2023-02-04T00:16:20;152.87;;;48.73;;
11835;SDS011;5977;51.972;7.640;2023-02-04T00:18:48;153.17;;;48.70;;
11835;SDS011;5977;51.972;7.640;2023-02-04T00:21:16;153.37;;;48.77;;
11835;SDS011;5977;51.972;7.640;2023-02-04T00:23:44;153.00;;;48.70;;
11835;SDS011;5977;51.972;7.640;2023-02-04T00:26:12;152.87;;;48.70;;
11835;SDS011;5977;51.972;7.640;2023-02-04T00:28:40;152.90;;;48.80;;
11835;SDS011;5977;51.972;7.640;2023-02-04T00:31:09;153.40;;;48.90;;
11835;SDS011;5977;51.972;7.640;2023-02-04T00:33:39;153.23;;;48.73;;
11835;SDS011;5977;51.972;7.640;2023-02-04T00:36:08;152.17;;;48.37;;
11835;SDS011;5977;51.972;7.640;2023-02-04T00:38:36;152.63;;;48.70;;
11835;SDS011;5977;51.972;7.640;2023-02-04T00:41:05;152.97;;;48.83;;
11835;SDS011;5977;51.972;7.640;2023-02-04T00:43:32;153.43;;;48.90;;
11835;SDS011;5977;51.972;7.640;2023-02-04T00:46:00;152.30;;;48.47;;
11835;SDS011;5977;51.972;7.640;2023-02-04T00:48:28;153.00;;;48.87;;
11835;SDS011;5977;51.972;7.640;2023-02-04T00:50:57;152.43;;;48.57;;
11835;SDS011;5977;51.972;7.640;2023-02-04T00:53:25;152.00;;;48.37;;
11835;SDS011;5977;51.972;7.640;2023-02-04T00:55:53;152.87;;;48.77;;
11835;SDS011;5977;51.972;7.640;2023-02-04T00:58:21;152.53;;;48.57;;
11835;SDS011;5977;51.972;7.640;2023-02-04T01:00:49;153.10;;;48.80;;
11835;SDS011;5977;51.972;7.640;2023-02-04T01:03:17;151.87;;;48.33;;
11835;SDS011;5977;51.972;7.640;2023-02-04T01:05:44;151.73;;;48.27;;
11835;SDS011;5977;51.972;7.640;2023-02-04T01:08:14;153.23;;;48.83;;
11835;SDS011;5977;51.972;7.640;2023-02-04T01:10:41;152.23;;;48.43;;
11835;SDS011;5977;51.972;7.640;2023-02-04T01:13:09;151.93;;;48.43;;
11835;SDS011;5977;51.972;7.640;2023-02-04T01:15:37;152.50;;;48.47;;
11835;SDS011;5977;51.972;7.640;2023-02-04T01:18:05;152.50;;;48.60;;
11835;SDS011;5977;51.972;7.640;2023-02-04T01:20:34;152.70;;;48.60;;
11835;SDS011;5977;51.972;7.640;2023-02-04T01:23:01;151.97;;;48.40;;
11835;SDS011;5977;51.972;7.640;2023-02-04T01:25:30;151.40;;;48.13;;
11835;SDS011;5977;51.972;7.640;2023-02-04T01:27:58;151.97;;;48.30;;
11835;SDS011;5977;51.972;7.640;2023-02-04T01:30:29;152.30;;;48.57;;
11835;SDS011;5977;51.972;7.640;2023-02-04T01:32:57;151.40;;;48.13;;
11835;SDS011;5977;51.972;7.640;2023-02-04T01:35:25;152.20;;;48.50;;
11835;SDS011;5977;51.972;7.640;2023-02-04T01:37:53;151.73;;;48.33;;
11835;SDS011;5977;51.972;7.640;2023-02-04T01:40:21;152.03;;;48.40;;
11835;SDS011;5977;51.972;7.640;2023-02-04T01:42:50;152.20;;;48.57;;
11835;SDS011;5977;51.972;7.640;2023-02-04T01:45:19;151.93;;;48.50;;
11835;SDS011;5977;51.972;7.640;2023-02-04T01:47:47;152.97;;;48.80;;
11835;SDS011;5977;51.972;7.640;2023-02-04T01:50:15;152.30;;;48.40;;
11835;SDS011;5977;51.972;7.640;2023-02-04T01:52:44;152.10;;;48.30;;
11835;SDS011;5977;51.972;7.640;2023-02-04T01:55:14;151.93;;;48.33;;
11835;SDS011;5977;51.972;7.640;2023-02-04T01:57:43;153.07;;;48.70;;
11835;SDS011;5977;51.972;7.640;2023-02-04T02:00:15;152.57;;;48.67;;
11835;SDS011;5977;51.972;7.640;2023-02-04T02:02:46;152.40;;;48.43;;
11835;SDS011;5977;51.972;7.640;2023-02-04T02:05:16;151.93;;;48.37;;
11835;SDS011;5977;51.972;7.640;2023-02-04T02:07:47;152.13;;;48.47;;
11835;SDS011;5977;51.972;7.640;2023-02-04T02:10:17;152.27;;;48.47;;
11835;SDS011;5977;51.972;7.640;2023-02-04T02:12:46;151.70;;;48.23;;
11835;SDS011;5977;51.972;7.640;2023-02-04T02:15:16;152.07;;;48.37;;
11835;SDS011;5977;51.972;7.640;2023-02-04T02:17:45;151.77;;;48.17;;
11835;SDS011;5977;51.972;7.640;2023-02-04T02:20:14;151.87;;;48.27;;
11835;SDS011;5977;51.972;7.640;2023-02-04T02:22:45;152.13;;;48.40;;
11835;SDS011;5977;51.972;7.640;2023-02-04T02:25:23;152.07;;;48.40;;
11835;SDS011;5977;51.972;7.640;2023-02-04T02:27:51;152.27;;;48.50;;
11835;SDS011;5977;51.972;7.640;2023-02-04T02:30:19;151.90;;;48.47;;
11835;SDS011;5977;51.972;7.640;2023-02-04T02:32:48;152.07;;;48.43;;
11835;SDS011;5977;51.972;7.640;2023-02-04T02:35:18;151.77;;;48.30;;
11835;SDS011;5977;51.972;7.640;2023-02-04T02:37:47;151.93;;;48.40;;
11835;SDS011;5977;51.972;7.640;2023-02-04T02:40:15;151.80;;;48.37;;
11835;SDS011;5977;51.972;7.640;2023-02-04T02:42:46;151.47;;;48.23;;
11835;SDS011;5977;51.972;7.640;2023-02-04T02:45:18;151.13;;;48.20;;
11835;SDS011;5977;51.972;7.640;2023-02-04T02:47:50;151.27;;;48.23;;
11835;SDS011;5977;51.972;7.640;2023-02-04T02:50:19;152.07;;;48.50;;
11835;SDS011;5977;51.972;7.640;2023-02-04T02:52:50;151.83;;;48.40;;
11835;SDS011;5977;51.972;7.640;2023-02-04T02:55:20;151.70;;;48.37;;
11835;SDS011;5977;51.972;7.640;2023-02-04T02:57:51;151.30;;;48.17;;
11835;SDS011;5977;51.972;7.640;2023-02-04T03:00:21;151.70;;;48.37;;
11835;SDS011;5977;51.972;7.640;2023-02-04T03:02:54;152.27;;;48.60;;
11835;SDS011;5977;51.972;7.640;2023-02-04T03:05:25;151.60;;;48.30;;
11835;SDS011;5977;51.972;7.640;2023-02-04T03:07:56;150.90;;;48.03;;
11835;SDS011;5977;51.972;7.640;2023-02-04T03:10:23;152.40;;;48.53;;
11835;SDS011;5977;51.972;7.640;2023-02-04T03:12:53;151.70;;;48.40;;
11835;SDS011;5977;51.972;7.640;2023-02-04T03:15:21;151.87;;;48.43;;
11835;SDS011;5977;51.972;7.640;2023-02-04T03:17:49;151.10;;;48.23;;
11835;SDS011;5977;51.972;7.640;2023-02-04T03:20:21;151.37;;;48.20;;
11835;SDS011;5977;51.972;7.640;2023-02-04T03:22:51;151.67;;;48.40;;
11835;SDS011;5977;51.972;7.640;2023-02-04T03:25:19;151.63;;;48.27;;
11835;SDS011;5977;51.972;7.640;2023-02-04T03:27:49;151.47;;;48.27;;
11835;SDS011;5977;51.972;7.640;2023-02-04T03:30:20;151.47;;;48.30;;
11835;SDS011;5977;51.972;7.640;2023-02-04T03:32:49;151.33;;;48.30;;
11835;SDS011;5977;51.972;7.640;2023-02-04T03:35:17;151.07;;;48.23;;
11835;SDS011;5977;51.972;7.640;2023-02-04T03:37:45;150.47;;;47.97;;
11835;SDS011;5977;51.972;7.640;2023-02-04T03:40:13;151.77;;;48.43;;
11835;SDS011;5977;51.972;7.640;2023-02-04T03:42:42;150.80;;;48.10;;
11835;SDS011;5977;51.972;7.640;2023-02-04T03:45:09;151.20;;;48.17;;
11835;SDS011;5977;51.972;7.640;2023-02-04T03:47:39;151.30;;;48.20;;
11835;SDS011;5977;51.972;7.640;2023-02-04T03:50:06;151.43;;;48.23;;
11835;SDS011;5977;51.972;7.640;2023-02-04T03:52:36;151.17;;;48.20;;
11835;SDS011;5977;51.972;7.640;2023-02-04T03:55:05;151.40;;;48.20;;
11835;SDS011;5977;51.972;7.640;2023-02-04T03:57:33;150.90;;;48.10;;
11835;SDS011;5977;51.972;7.640;2023-02-04T04:00:01;151.03;;;48.17;;
11835;SDS011;5977;51.972;7.640;2023-02-04T04:02:37;151.20;;;48.17;;
11835;SDS011;5977;51.972;7.640;2023-02-04T04:05:07;151.10;;;48.20;;
11835;SDS011;5977;51.972;7.640;2023-02-04T04:07:35;151.00;;;48.13;;
11835;SDS011;5977;51.972;7.640;2023-02-04T04:10:03;150.37;;;47.93;;
11835;SDS011;5977;51.972;7.640;2023-02-04T04:12:31;151.13;;;48.23;;
11835;SDS011;5977;51.972;7.640;2023-02-04T04:14:59;151.27;;;48.27;;
11835;SDS011;5977;51.972;7.640;2023-02-04T04:17:27;151.33;;;48.30;;
11835;SDS011;5977;51.972;7.640;2023-02-04T04:19:56;150.93;;;48.07;;
11835;SDS011;5977;51.972;7.640;2023-02-04T04:22:24;150.63;;;48.07;;
11835;SDS011;5977;51.972;7.640;2023-02-04T04:24:53;150.73;;;48.07;;
11835;SDS011;5977;51.972;7.640;2023-02-04T04:27:20;150.57;;;48.00;;
11835;SDS011;5977;51.972;7.640;2023-02-04T04:29:48;150.80;;;48.10;;
11835;SDS011;5977;51.972;7.640;2023-02-04T04:32:16;151.17;;;48.20;;
11835;SDS011;5977;51.972;7.640;2023-02-04T04:34:44;150.47;;;47.83;;
11835;SDS011;5977;51.972;7.640;2023-02-04T04:37:13;150.77;;;48.07;;
11835;SDS011;5977;51.972;7.640;2023-02-04T04:39:41;150.73;;;48.13;;
11835;SDS011;5977;51.972;7.640;2023-02-04T04:42:09;150.33;;;47.97;;
11835;SDS011;5977;51.972;7.640;2023-02-04T04:44:36;150.67;;;47.97;;
11835;SDS011;5977;51.972;7.640;2023-02-04T04:47:04;150.27;;;47.90;;
11835;SDS011;5977;51.972;7.640;2023-02-04T04:49:32;150.50;;;48.00;;
11835;SDS011;5977;51.972;7.640;2023-02-04T04:52:00;150.33;;;48.00;;
11835;SDS011;5977;51.972;7.640;2023-02-04T04:54:29;151.33;;;48.27;;
11835;SDS011;5977;51.972;7.640;2023-02-04T04:56:57;150.57;;;47.97;;
11835;SDS011;5977;51.972;7.640;2023-02-04T04:59:25;150.30;;;47.87;;
11835;SDS011;5977;51.972;7.640;2023-02-04T05:01:52;151.13;;;48.20;;
11835;SDS011;5977;51.972;7.640;2023-02-04T05:04:20;150.60;;;47.93;;
11835;SDS011;5977;51.972;7.640;2023-02-04T05:06:48;151.03;;;48.10;;
11835;SDS011;5977;51.972;7.640;2023-02-04T05:09:16;150.67;;;48.13;;
11835;SDS011;5977;51.972;7.640;2023-02-04T05:11:45;151.63;;;48.53;;
11835;SDS011;5977;51.972;7.640;2023-02-04T05:14:13;150.87;;;48.10;;
11835;SDS011;5977;51.972;7.640;2023-02-04T05:16:41;150.57;;;48.20;;
11835;SDS011;5977;51.972;7.640;2023-02-04T05:19:09;150.90;;;48.30;;
11835;SDS011;5977;51.972;7.640;2023-02-04T05:21:37;150.50;;;48.03;;
11835;SDS011;5977;51.972;7.640;2023-02-04T05:24:05;151.10;;;48.37;;
11835;SDS011;5977;51.972;7.640;2023-02-04T05:26:32;150.90;;;48.23;;
11835;SDS011;5977;51.972;7.640;2023-02-04T05:29:02;150.60;;;48.20;;
11835;SDS011;5977;51.972;7.640;2023-02-04T05:31:30;150.77;;;48.03;;
11835;SDS011;5977;51.972;7.640;2023-02-04T05:33:59;150.47;;;48.07;;
11835;SDS011;5977;51.972;7.640;2023-02-04T05:36:27;150.37;;;47.77;;
11835;SDS011;5977;51.972;7.640;2023-02-04T05:38:55;150.87;;;48.20;;
11835;SDS011;5977;51.972;7.640;2023-02-04T05:41:22;150.53;;;48.13;;
11835;SDS011;5977;51.972;7.640;2023-02-04T05:43:50;150.83;;;48.17;;
11835;SDS011;5977;51.972;7.640;2023-02-04T05:46:19;150.80;;;48.13;;
11835;SDS011;5977;51.972;7.640;2023-02-04T05:48:47;150.27;;;47.97;;
11835;SDS011;5977;51.972;7.640;2023-02-04T05:51:15;151.03;;;48.30;;
11835;SDS011;5977;51.972;7.640;2023-02-04T05:53:43;151.00;;;48.20;;
11835;SDS011;5977;51.972;7.640;2023-02-04T05:56:11;151.00;;;48.20;;
11835;SDS011;5977;51.972;7.640;2023-02-04T05:58:39;150.13;;;47.87;;
11835;SDS011;5977;51.972;7.640;2023-02-04T06:01:07;150.77;;;48.10;;
11835;SDS011;5977;51.972;7.640;2023-02-04T06:03:36;150.60;;;48.13;;
11835;SDS011;5977;51.972;7.640;2023-02-04T06:06:04;151.03;;;48.23;;
11835;SDS011;5977;51.972;7.640;2023-02-04T06:08:32;150.43;;;48.00;;
11835;SDS011;5977;51.972;7.640;2023-02-04T06:11:00;150.50;;;48.10;;
11835;SDS011;5977;51.972;7.640;2023-02-04T06:13:28;149.70;;;47.80;;
11835;SDS011;5977;51.972;7.640;2023-02-04T06:15:56;150.13;;;47.97;;
11835;SDS011;5977;51.972;7.640;2023-02-04T06:18:23;150.60;;;48.20;;
11835;SDS011;5977;51.972;7.640;2023-02-04T06:20:53;150.50;;;48.10;;
11835;SDS011;5977;51.972;7.640;2023-02-04T06:23:20;149.90;;;47.87;;
11835;SDS011;5977;51.972;7.640;2023-02-04T06:25:48;150.27;;;48.03;;
11835;SDS011;5977;51.972;7.640;2023-02-04T06:28:16;149.80;;;47.90;;
11835;SDS011;5977;51.972;7.640;2023-02-04T06:30:44;150.07;;;47.87;;
11835;SDS011;5977;51.972;7.640;2023-02-04T06:33:12;150.53;;;48.07;;
11835;SDS011;5977;51.972;7.640;2023-02-04T06:35:40;150.23;;;48.07;;
11835;SDS011;5977;51.972;7.640;2023-02-04T06:38:09;149.47;;;47.67;;
11835;SDS011;5977;51.972;7.640;2023-02-04T06:40:37;150.47;;;48.07;;
11835;SDS011;5977;51.972;7.640;2023-02-04T06:43:04;150.53;;;48.13;;
11835;SDS011;5977;51.972;7.640;2023-02-04T06:45:32;150.57;;;48.13;;
11835;SDS011;5977;51.972;7.640;2023-02-04T06:48:01;150.37;;;48.13;;
11835;SDS011;5977;51.972;7.640;2023-02-04T06:50:28;150.80;;;48.23;;
11835;SDS011;5977;51.972;7.640;2023-02-04T06:52:56;150.10;;;47.87;;
11835;SDS011;5977;51.972;7.640;2023-02-04T06:55:26;150.07;;;47.93;;
11835;SDS011;5977;51.972;7.640;2023-02-04T06:57:53;150.20;;;47.97;;
11835;SDS011;5977;51.972;7.640;2023-02-04T07:00:21;150.03;;;48.00;;
11835;SDS011;5977;51.972;7.640;2023-02-04T07:02:49;150.63;;;48.17;;
11835;SDS011;5977;51.972;7.640;2023-02-04T07:05:18;150.47;;;48.10;;
11835;SDS011;5977;51.972;7.640;2023-02-04T07:07:46;150.30;;;48.17;;
11835;SDS011;5977;51.972;7.640;2023-02-04T07:10:14;150.47;;;48.17;;
11835;SDS011;5977;51.972;7.640;2023-02-04T07:12:44;150.27;;;48.03;;
11835;SDS011;5977;51.972;7.640;2023-02-04T07:15:11;150.53;;;48.17;;
11835;SDS011;5977;51.972;7.640;2023-02-04T07:17:39;149.43;;;47.70;;
11835;SDS011;5977;51.972;7.640;2023-02-04T07:20:08;150.27;;;48.10;;
11835;SDS011;5977;51.972;7.640;2023-02-04T07:22:36;149.73;;;47.90;;
11835;SDS011;5977;51.972;7.640;2023-02-04T07:25:04;150.37;;;48.03;;
11835;SDS011;5977;51.972;7.640;2023-02-04T07:27:33;150.53;;;48.17;;
11835;SDS011;5977;51.972;7.640;2023-02-04T07:30:02;149.97;;;47.80;;
11835;SDS011;5977;51.972;7.640;2023-02-04T07:32:30;150.10;;;48.07;;
11835;SDS011;5977;51.972;7.640;2023-02-04T07:34:59;150.57;;;48.20;;
11835;SDS011;5977;51.972;7.640;2023-02-04T07:37:27;150.33;;;48.00;;
11835;SDS011;5977;51.972;7.640;2023-02-04T07:39:55;150.63;;;48.30;;
11835;SDS011;5977;51.972;7.640;2023-02-04T07:42:23;149.63;;;47.77;;
11835;SDS011;5977;51.972;7.640;2023-02-04T07:44:58;150.33;;;48.03;;
11835;SDS011;5977;51.972;7.640;2023-02-04T07:47:28;149.63;;;47.87;;
11835;SDS011;5977;51.972;7.640;2023-02-04T07:49:55;149.17;;;47.80;;
11835;SDS011;5977;51.972;7.640;2023-02-04T07:52:23;149.10;;;47.60;;
11835;SDS011;5977;51.972;7.640;2023-02-04T07:54:51;147.93;;;47.27;;
11835;SDS011;5977;51.972;7.640;2023-02-04T07:57:19;148.20;;;47.30;;
11835;SDS011;5977;51.972;7.640;2023-02-04T07:59:47;148.33;;;47.47;;
11835;SDS011;5977;51.972;7.640;2023-02-04T08:02:15;148.13;;;47.30;;
11835;SDS011;5977;51.972;7.640;2023-02-04T08:04:44;147.10;;;47.07;;
11835;SDS011;5977;51.972;7.640;2023-02-04T08:07:12;147.73;;;47.27;;
11835;SDS011;5977;51.972;7.640;2023-02-04T08:09:40;147.67;;;47.10;;
11835;SDS011;5977;51.972;7.640;2023-02-04T08:12:08;147.40;;;47.10;;
11835;SDS011;5977;51.972;7.640;2023-02-04T08:14:36;146.70;;;47.00;;
11835;SDS011;5977;51.972;7.640;2023-02-04T08:17:04;146.87;;;46.90;;
11835;SDS011;5977;51.972;7.640;2023-02-04T08:19:32;148.87;;;47.27;;
11835;SDS011;5977;51.972;7.640;2023-02-04T08:22:01;146.33;;;46.80;;
11835;SDS011;5977;51.972;7.640;2023-02-04T08:24:29;146.63;;;46.87;;
11835;SDS011;5977;51.972;7.640;2023-02-04T08:26:56;146.93;;;46.93;;
11835;SDS011;5977;51.972;7.640;2023-02-04T08:29:24;147.33;;;47.20;;
11835;SDS011;5977;51.972;7.640;2023-02-04T08:31:52;146.37;;;46.80;;
11835;SDS011;5977;51.972;7.640;2023-02-04T08:34:20;146.77;;;46.90;;
11835;SDS011;5977;51.972;7.640;2023-02-04T08:36:48;146.70;;;46.90;;
11835;SDS011;5977;51.972;7.640;2023-02-04T08:39:17;146.60;;;46.90;;
11835;SDS011;5977;51.972;7.640;2023-02-04T08:41:45;146.00;;;46.70;;
11835;SDS011;5977;51.972;7.640;2023-02-04T08:44:14;145.80;;;46.70;;
11835;SDS011;5977;51.972;7.640;2023-02-04T08:46:42;145.03;;;46.30;;
11835;SDS011;5977;51.972;7.640;2023-02-04T08:49:09;146.00;;;46.67;;
11835;SDS011;5977;51.972;7.640;2023-02-04T08:51:37;145.13;;;46.40;;
11835;SDS011;5977;51.972;7.640;2023-02-04T08:54:05;145.67;;;46.57;;
11835;SDS011;5977;51.972;7.640;2023-02-04T08:56:34;145.77;;;46.73;;
11835;SDS011;5977;51.972;7.640;2023-02-04T08:59:03;145.67;;;46.67;;
11835;SDS011;5977;51.972;7.640;2023-02-04T09:01:31;146.20;;;46.80;;
11835;SDS011;5977;51.972;7.640;2023-02-04T09:03:58;146.07;;;46.80;;
11835;SDS011;5977;51.972;7.640;2023-02-04T09:06:26;145.83;;;46.67;;
11835;SDS011;5977;51.972;7.640;2023-02-04T09:08:54;145.67;;;46.50;;
11835;SDS011;5977;51.972;7.640;2023-02-04T09:11:22;146.33;;;46.80;;
11835;SDS011;5977;51.972;7.640;2023-02-04T09:13:52;146.37;;;46.90;;
11835;SDS011;5977;51.972;7.640;2023-02-04T09:16:21;146.27;;;46.80;;
11835;SDS011;5977;51.972;7.640;2023-02-04T09:18:49;146.57;;;46.90;;
11835;SDS011;5977;51.972;7.640;2023-02-04T09:21:17;146.63;;;46.97;;
11835;SDS011;5977;51.972;7.640;2023-02-04T09:23:45;146.37;;;46.83;;
11835;SDS011;5977;51.972;7.640;2023-02-04T09:26:13;146.50;;;46.90;;
11835;SDS011;5977;51.972;7.640;2023-02-04T09:28:41;146.30;;;46.90;;
11835;SDS011;5977;51.972;7.640;2023-02-04T09:31:11;146.27;;;46.80;;
11835;SDS011;5977;51.972;7.640;2023-02-04T09:33:39;145.97;;;46.80;;
11835;SDS011;5977;51.972;7.640;2023-02-04T09:36:07;146.00;;;46.73;;
11835;SDS011;5977;51.972;7.640;2023-02-04T09:38:35;145.80;;;46.70;;
11835;SDS011;5977;51.972;7.640;2023-02-04T09:41:05;146.20;;;46.90;;
11835;SDS011;5977;51.972;7.640;2023-02-04T09:43:35;146.20;;;46.87;;
11835;SDS011;5977;51.972;7.640;2023-02-04T09:46:06;146.30;;;46.90;;
11835;SDS011;5977;51.972;7.640;2023-02-04T09:48:37;146.07;;;46.70;;
11835;SDS011;5977;51.972;7.640;2023-02-04T09:51:05;146.63;;;47.07;;
11835;SDS011;5977;51.972;7.640;2023-02-04T09:53:33;146.10;;;46.73;;
11835;SDS011;5977;51.972;7.640;2023-02-04T09:56:03;146.47;;;47.07;;
11835;SDS011;5977;51.972;7.640;2023-02-04T09:58:32;147.27;;;47.20;;
11835;SDS011;5977;51.972;7.640;2023-02-04T10:01:04;146.93;;;47.10;;
11835;SDS011;5977;51.972;7.640;2023-02-04T10:03:40;146.63;;;47.03;;
11835;SDS011;5977;51.972;7.640;2023-02-04T10:06:12;147.13;;;47.17;;
11835;SDS011;5977;51.972;7.640;2023-02-04T10:08:40;147.00;;;47.13;;
11835;SDS011;5977;51.972;7.640;2023-02-04T10:11:10;146.97;;;47.00;;
11835;SDS011;5977;51.972;7.640;2023-02-04T10:13:40;147.13;;;47.20;;
11835;SDS011;5977;51.972;7.640;2023-02-04T10:16:12;147.73;;;47.40;;
11835;SDS011;5977;51.972;7.640;2023-02-04T10:18:42;147.13;;;47.17;;
11835;SDS011;5977;51.972;7.640;2023-02-04T10:21:12;146.83;;;46.93;;
11835;SDS011;5977;51.972;7.640;2023-02-04T10:23:44;147.27;;;47.23;;
11835;SDS011;5977;51.972;7.640;2023-02-04T10:26:15;147.13;;;47.23;;
11835;SDS011;5977;51.972;7.640;2023-02-04T10:28:43;146.97;;;47.07;;
11835;SDS011;5977;51.972;7.640;2023-02-04T10:31:28;147.47;;;47.37;;
11835;SDS011;5977;51.972;7.640;2023-02-04T10:34:09;148.73;;;47.57;;
11835;SDS011;5977;51.972;7.640;2023-02-04T10:36:39;150.67;;;48.37;;
11835;SDS011;5977;51.972;7.640;2023-02-04T10:39:10;152.07;;;48.80;;
11835;SDS011;5977;51.972;7.640;2023-02-04T10:41:43;153.10;;;49.00;;
11835;SDS011;5977;51.972;7.640;2023-02-04T10:44:15;153.43;;;49.03;;
11835;SDS011;5977;51.972;7.640;2023-02-04T10:46:44;154.67;;;49.47;;
11835;SDS011;5977;51.972;7.640;2023-02-04T10:49:21;154.80;;;49.43;;
11835;SDS011;5977;51.972;7.640;2023-02-04T10:51:51;155.33;;;49.57;;
11835;SDS011;5977;51.972;7.640;2023-02-04T10:54:19;156.07;;;49.97;;
11835;SDS011;5977;51.972;7.640;2023-02-04T10:56:56;155.80;;;49.87;;
11835;SDS011;5977;51.972;7.640;2023-02-04T10:59:26;155.73;;;49.87;;
11835;SDS011;5977;51.972;7.640;2023-02-04T11:01:55;155.80;;;49.77;;
11835;SDS011;5977;51.972;7.640;2023-02-04T11:04:26;155.73;;;49.77;;
11835;SDS011;5977;51.972;7.640;2023-02-04T11:06:54;156.43;;;50.10;;
11835;SDS011;5977;51.972;7.640;2023-02-04T11:09:22;156.40;;;50.07;;
11835;SDS011;5977;51.972;7.640;2023-02-04T11:11:50;156.03;;;49.83;;
11835;SDS011;5977;51.972;7.640;2023-02-04T11:14:23;156.13;;;49.73;;
11835;SDS011;5977;51.972;7.640;2023-02-04T11:16:53;156.13;;;49.97;;
11835;SDS011;5977;51.972;7.640;2023-02-04T11:19:31;156.60;;;50.10;;
11835;SDS011;5977;51.972;7.640;2023-02-04T11:22:05;156.50;;;49.93;;
11835;SDS011;5977;51.972;7.640;2023-02-04T11:24:34;156.57;;;49.87;;
11835;SDS011;5977;51.972;7.640;2023-02-04T11:27:06;156.63;;;50.00;;
11835;SDS011;5977;51.972;7.640;2023-02-04T11:29:44;156.43;;;49.93;;
11835;SDS011;5977;51.972;7.640;2023-02-04T11:32:26;156.77;;;50.03;;
11835;SDS011;5977;51.972;7.640;2023-02-04T11:35:06;156.63;;;50.10;;
11835;SDS011;5977;51.972;7.640;2023-02-04T11:37:49;156.90;;;50.07;;
11835;SDS011;5977;51.972;7.640;2023-02-04T11:40:22;156.60;;;50.13;;
11835;SDS011;5977;51.972;7.640;2023-02-04T11:42:56;157.33;;;50.27;;
11835;SDS011;5977;51.972;7.640;2023-02-04T11:45:26;157.00;;;50.07;;
11835;SDS011;5977;51.972;7.640;2023-02-04T11:47:57;157.77;;;50.33;;
11835;SDS011;5977;51.972;7.640;2023-02-04T11:50:29;156.87;;;50.07;;
11835;SDS011;5977;51.972;7.640;2023-02-04T11:52:59;157.73;;;50.33;;
11835;SDS011;5977;51.972;7.640;2023-02-04T11:55:28;157.47;;;50.17;;
11835;SDS011;5977;51.972;7.640;2023-02-04T11:57:57;157.37;;;50.37;;
11835;SDS011;5977;51.972;7.640;2023-02-04T12:00:26;157.37;;;50.30;;
11835;SDS011;5977;51.972;7.640;2023-02-04T12:02:57;157.40;;;50.33;;
11835;SDS011;5977;51.972;7.640;2023-02-04T12:05:35;157.50;;;50.30;;
11835;SDS011;5977;51.972;7.640;2023-02-04T12:08:09;157.77;;;50.37;;
11835;SDS011;5977;51.972;7.640;2023-02-04T12:10:46;157.97;;;50.50;;
11835;SDS011;5977;51.972;7.640;2023-02-04T12:13:16;157.50;;;50.40;;
11835;SDS011;5977;51.972;7.640;2023-02-04T12:15:51;158.03;;;50.53;;
11835;SDS011;5977;51.972;7.640;2023-02-04T12:18:24;157.80;;;50.47;;
11835;SDS011;5977;51.972;7.640;2023-02-04T12:20:54;157.80;;;50.37;;
11835;SDS011;5977;51.972;7.640;2023-02-04T12:23:23;158.03;;;50.40;;
11835;SDS011;5977;51.972;7.640;2023-02-04T12:25:51;158.03;;;50.57;;
11835;SDS011;5977;51.972;7.640;2023-02-04T12:28:19;158.40;;;50.67;;
11835;SDS011;5977;51.972;7.640;2023-02-04T12:30:48;158.83;;;51.00;;
11835;SDS011;5977;51.972;7.640;2023-02-04T12:33:16;158.37;;;50.70;;
11835;SDS011;5977;51.972;7.640;2023-02-04T12:35:43;158.73;;;50.67;;
11835;SDS011;5977;51.972;7.640;2023-02-04T12:38:13;157.97;;;50.40;;
11835;SDS011;5977;51.972;7.640;2023-02-04T12:40:41;157.73;;;50.37;;
11835;SDS011;5977;51.972;7.640;2023-02-04T12:43:09;158.33;;;50.50;;
11835;SDS011;5977;51.972;7.640;2023-02-04T12:45:37;158.57;;;50.70;;
11835;SDS011;5977;51.972;7.640;2023-02-04T12:48:10;158.33;;;50.67;;
11835;SDS011;5977;51.972;7.640;2023-02-04T12:50:39;158.00;;;50.53;;
11835;SDS011;5977;51.972;7.640;2023-02-04T12:53:07;158.50;;;50.70;;
11835;SDS011;5977;51.972;7.640;2023-02-04T12:55:36;158.73;;;50.77;;
11835;SDS011;5977;51.972;7.640;2023-02-04T12:58:04;159.00;;;50.73;;
11835;SDS011;5977;51.972;7.640;2023-02-04T13:00:32;158.40;;;50.73;;
11835;SDS011;5977;51.972;7.640;2023-02-04T13:03:00;159.20;;;50.97;;
11835;SDS011;5977;51.972;7.640;2023-02-04T13:05:28;159.30;;;50.73;;
11835;SDS011;5977;51.972;7.640;2023-02-04T13:07:56;158.57;;;50.67;;
11835;SDS011;5977;51.972;7.640;2023-02-04T13:10:24;159.13;;;50.87;;
11835;SDS011;5977;51.972;7.640;2023-02-04T13:12:53;159.00;;;50.70;;
11835;SDS011;5977;51.972;7.640;2023-02-04T13:15:21;158.50;;;50.73;;
11835;SDS011;5977;51.972;7.640;2023-02-04T13:17:49;158.67;;;50.77;;
11835;SDS011;5977;51.972;7.640;2023-02-04T13:20:17;158.87;;;50.90;;
11835;SDS011;5977;51.972;7.640;2023-02-04T13:22:45;159.00;;;50.70;;
11835;SDS011;5977;51.972;7.640;2023-02-04T13:25:13;159.80;;;51.17;;
11835;SDS011;5977;51.972;7.640;2023-02-04T13:27:41;159.07;;;50.87;;
11835;SDS011;5977;51.972;7.640;2023-02-04T13:30:12;158.73;;;50.73;;
11835;SDS011;5977;51.972;7.640;2023-02-04T13:32:41;158.90;;;50.80;;
11835;SDS011;5977;51.972;7.640;2023-02-04T13:35:09;159.03;;;50.70;;
11835;SDS011;5977;51.972;7.640;2023-02-04T13:37:38;158.90;;;50.60;;
11835;SDS011;5977;51.972;7.640;2023-02-04T13:40:06;159.00;;;50.80;;
11835;SDS011;5977;51.972;7.640;2023-02-04T13:42:34;159.20;;;50.80;;
11835;SDS011;5977;51.972;7.640;2023-02-04T13:45:02;159.87;;;50.97;;
11835;SDS011;5977;51.972;7.640;2023-02-04T13:47:34;158.90;;;50.67;;
11835;SDS011;5977;51.972;7.640;2023-02-04T13:50:01;158.87;;;50.77;;
11835;SDS011;5977;51.972;7.640;2023-02-04T13:52:29;158.90;;;50.57;;
11835;SDS011;5977;51.972;7.640;2023-02-04T13:54:58;159.27;;;50.77;;
11835;SDS011;5977;51.972;7.640;2023-02-04T13:57:26;158.67;;;50.70;;
11835;SDS011;5977;51.972;7.640;2023-02-04T13:59:56;158.93;;;50.77;;
11835;SDS011;5977;51.972;7.640;2023-02-04T14:02:23;159.07;;;50.73;;
11835;SDS011;5977;51.972;7.640;2023-02-04T14:04:53;159.17;;;50.47;;
11835;SDS011;5977;51.972;7.640;2023-02-04T14:07:22;158.80;;;50.60;;
11835;SDS011;5977;51.972;7.640;2023-02-04T14:09:50;158.87;;;50.77;;
11835;SDS011;5977;51.972;7.640;2023-02-04T14:12:18;158.73;;;50.43;;
11835;SDS011;5977;51.972;7.640;2023-02-04T14:14:46;159.03;;;50.63;;
11835;SDS011;5977;51.972;7.640;2023-02-04T14:17:14;159.33;;;50.77;;
11835;SDS011;5977;51.972;7.640;2023-02-04T14:19:41;158.60;;;50.70;;
11835;SDS011;5977;51.972;7.640;2023-02-04T14:22:11;159.00;;;50.70;;
11835;SDS011;5977;51.972;7.640;2023-02-04T14:24:38;159.23;;;50.80;;
11835;SDS011;5977;51.972;7.640;2023-02-04T14:27:08;159.27;;;50.63;;
11835;SDS011;5977;51.972;7.640;2023-02-04T14:29:36;158.67;;;50.67;;
11835;SDS011;5977;51.972;7.640;2023-02-04T14:32:04;159.53;;;50.87;;